»·PEaware :: N149CD KVNY-KSBP

N149CD :: KVNY-KSBP

FLIGHT INFORMATION

Flight Status: Arrived
Operator: Privately registered:
United States
More flights under this callsign
Pilot: Nathan E. (30132)
Aircraft: CESSNA 172 SKYHAWK
(C172)
More flights by this aircraft type
Origin: KVNY Van Nuys
United States
Destination: KSBP San Luis Co Regl
United States
More flights between these airports :: More routes between these airports
Route: +CANOG3 FIM V186 RZS MQO
File this flight plan on PilotEdge
Remarks:
Altitude:
(Current/Filed)
8,000ft
Speed:
(Current/Filed)
110kts
Departed: 23-Sep-20 12:25 PM
Arrived: 23-Sep-20 01:45 PM
Distance/Time
Traveled:
123nm/1:20
Distance/Time
To Go:
Arrived

Flight Plot

Page will automatically refresh every two minutes.

Flight plan parsing failed; only flown route is shown


Map Options




Map Legend


Flown Route
Filed Route
Departure Airport
Arrival Airport
Navaid (VOR, NDB)
Fix

Horizontal Profiles

Position Reports

Time Latitude Longitude Heading Altitude Ground
Speed
23-Sep-20 12:08 34.215501 -118.498360 358 806ft 0kts
23-Sep-20 12:09 34.215501 -118.498360 358 806ft 0kts
23-Sep-20 12:10 34.215501 -118.498360 358 806ft 0kts
23-Sep-20 12:11 34.215501 -118.498360 358 806ft 0kts
23-Sep-20 12:12 34.215501 -118.498360 358 806ft 0kts
23-Sep-20 12:13 34.215501 -118.498360 358 806ft 0kts
23-Sep-20 12:14 34.215501 -118.498360 358 806ft 0kts
23-Sep-20 12:15 34.215501 -118.498360 358 806ft 0kts
23-Sep-20 12:16 34.215501 -118.498360 358 806ft 0kts
23-Sep-20 12:17 34.215501 -118.498360 358 806ft 0kts
23-Sep-20 12:18 34.215501 -118.498360 358 806ft 0kts
23-Sep-20 12:19 34.215793 -118.498335 18 806ft 10kts
23-Sep-20 12:20 34.217327 -118.493832 99 806ft 17kts
23-Sep-20 12:21 34.219354 -118.492395 85 806ft 4kts
23-Sep-20 12:22 34.219331 -118.492183 98 806ft 0kts
23-Sep-20 12:23 34.219252 -118.492009 140 806ft 9kts
23-Sep-20 12:24 34.206723 -118.490250 175 970ft 78kts
23-Sep-20 12:25 34.185355 -118.488661 189 1677ft 79kts
23-Sep-20 12:26 34.168862 -118.506358 224 2359ft 80kts
23-Sep-20 12:27 34.153284 -118.525944 224 3010ft 81kts
23-Sep-20 12:28 34.137712 -118.545763 224 3630ft 81kts
23-Sep-20 12:29 34.139678 -118.566406 348 4203ft 84kts
23-Sep-20 12:30 34.162821 -118.571333 352 4760ft 85kts
23-Sep-20 12:31 34.186158 -118.576124 352 5289ft 85kts
23-Sep-20 12:32 34.209648 -118.580924 352 5790ft 86kts
23-Sep-20 12:33 34.233400 -118.585757 352 6266ft 87kts
23-Sep-20 12:34 34.257329 -118.590638 352 6721ft 87kts
23-Sep-20 12:35 34.281189 -118.595622 352 7172ft 87kts
23-Sep-20 12:36 34.305174 -118.600731 352 7606ft 87kts
23-Sep-20 12:38 34.319313 -118.620579 277 8002ft 90kts
23-Sep-20 12:39 34.324457 -118.655501 277 8020ft 110kts
23-Sep-20 12:40 34.329830 -118.692660 277 8020ft 117kts
23-Sep-20 12:41 34.335465 -118.731982 277 8015ft 118kts
23-Sep-20 12:42 34.341061 -118.771249 277 8012ft 118kts
23-Sep-20 12:43 34.346667 -118.810739 277 8008ft 119kts
23-Sep-20 12:44 34.352219 -118.849974 277 8008ft 119kts
23-Sep-20 12:45 34.355497 -118.889928 264 8009ft 118kts
23-Sep-20 12:46 34.352980 -118.929913 263 8009ft 119kts
23-Sep-20 12:47 34.350154 -118.969867 263 8009ft 119kts
23-Sep-20 12:48 34.347231 -119.009983 263 8009ft 119kts
23-Sep-20 12:49 34.344281 -119.050052 264 8005ft 120kts
23-Sep-20 12:50 34.341311 -119.090189 264 8001ft 119kts
23-Sep-20 12:51 34.338335 -119.130162 264 8003ft 119kts
23-Sep-20 12:52 34.335339 -119.170221 264 8004ft 119kts
23-Sep-20 12:52 34.332836 -119.203552 264 8006ft 119kts
23-Sep-20 12:54 34.329321 -119.250134 264 8007ft 119kts
23-Sep-20 12:55 34.326298 -119.289985 264 8009ft 119kts
23-Sep-20 12:55 34.323764 -119.323259 264 8009ft 119kts
23-Sep-20 12:56 34.320717 -119.363118 264 8009ft 119kts
23-Sep-20 12:58 34.317575 -119.409857 280 8004ft 119kts
23-Sep-20 12:58 34.330362 -119.439607 301 8009ft 119kts
23-Sep-20 12:59 34.348302 -119.473981 303 8009ft 120kts
23-Sep-20 13:01 34.369699 -119.513605 303 8009ft 119kts
23-Sep-20 13:01 34.385256 -119.542217 303 8008ft 120kts
23-Sep-20 13:02 34.404513 -119.577605 303 8007ft 120kts
23-Sep-20 13:03 34.423387 -119.612306 303 8006ft 120kts
23-Sep-20 13:04 34.441704 -119.646010 303 8004ft 119kts
23-Sep-20 13:05 34.459474 -119.678765 304 8021ft 115kts
23-Sep-20 13:06 34.477213 -119.711451 304 8020ft 115kts
23-Sep-20 13:07 34.494918 -119.744108 304 8018ft 115kts
23-Sep-20 13:08 34.513210 -119.775928 309 8018ft 115kts
23-Sep-20 13:09 34.533367 -119.806395 308 7999ft 114kts
23-Sep-20 13:10 34.553141 -119.836222 308 8000ft 114kts
23-Sep-20 13:11 34.573665 -119.867160 308 8000ft 114kts
23-Sep-20 13:12 34.593571 -119.897180 308 8000ft 114kts
23-Sep-20 13:13 34.613781 -119.927672 308 7936ft 115kts
23-Sep-20 13:14 34.634041 -119.958197 308 7438ft 116kts
23-Sep-20 13:15 34.654347 -119.988870 308 6937ft 116kts
23-Sep-20 13:16 34.674604 -120.019512 308 6436ft 116kts
23-Sep-20 13:17 34.694752 -120.050026 308 6006ft 114kts
23-Sep-20 13:18 34.714561 -120.080123 308 5999ft 114kts
23-Sep-20 13:19 34.734459 -120.110330 308 6000ft 114kts
23-Sep-20 13:20 34.754401 -120.140615 308 6001ft 114kts
23-Sep-20 13:21 34.774335 -120.170909 308 6003ft 115kts
23-Sep-20 13:22 34.794332 -120.201324 308 6006ft 115kts
23-Sep-20 13:23 34.814399 -120.231869 308 6009ft 115kts
23-Sep-20 13:24 34.834504 -120.262496 308 6013ft 116kts
23-Sep-20 13:25 34.854784 -120.293405 308 6015ft 117kts
23-Sep-20 13:26 34.875137 -120.324445 308 6017ft 117kts
23-Sep-20 13:27 34.895702 -120.355815 308 5699ft 119kts
23-Sep-20 13:28 34.916269 -120.387249 308 5199ft 118kts
23-Sep-20 13:29 34.936789 -120.418648 308 4698ft 118kts
23-Sep-20 13:30 34.957389 -120.450200 309 4196ft 118kts
23-Sep-20 13:31 34.977272 -120.480711 308 4017ft 111kts
23-Sep-20 13:32 34.996430 -120.510120 308 4017ft 110kts
23-Sep-20 13:33 35.021309 -120.526285 20 3755ft 118kts
23-Sep-20 13:34 35.048045 -120.505809 35 3324ft 117kts
23-Sep-20 13:35 35.074225 -120.482290 35 3322ft 111kts
23-Sep-20 13:36 35.099260 -120.459610 35 3321ft 112kts
23-Sep-20 13:37 35.126632 -120.457254 318 3016ft 115kts
23-Sep-20 13:38 35.146794 -120.486274 307 2915ft 109kts
23-Sep-20 13:39 35.165015 -120.515868 306 2835ft 115kts
23-Sep-20 13:40 35.183701 -120.546995 304 2175ft 109kts
23-Sep-20 13:41 35.200674 -120.576722 304 1521ft 104kts
23-Sep-20 13:42 35.215277 -120.602314 304 963ft 81kts
23-Sep-20 13:43 35.225737 -120.620666 303 560ft 60kts
23-Sep-20 13:44 35.234947 -120.636811 305 216ft 37kts
23-Sep-20 13:45 35.237779 -120.639788 20 216ft 15kts

Navigation Log

Ident Type
Flight plan parsing failed, navigation log unavailable